createdAt,value
2022-12-03T00:02:52.384Z,5.72
2022-12-03T00:07:57.814Z,6.35
2022-12-03T00:13:03.113Z,6.07
2022-12-03T00:18:11.005Z,6.00
2022-12-03T00:23:16.416Z,6.50
2022-12-03T00:28:21.638Z,6.40
2022-12-03T00:33:29.487Z,7.00
2022-12-03T00:38:34.713Z,6.65
2022-12-03T00:43:40.314Z,6.03
2022-12-03T00:48:48.229Z,6.80
2022-12-03T00:53:53.684Z,6.38
2022-12-03T00:58:58.912Z,6.63
2022-12-03T01:04:07.018Z,6.43
2022-12-03T01:09:12.287Z,6.33
2022-12-03T01:14:20.159Z,6.60
2022-12-03T01:19:28.174Z,7.53
2022-12-03T01:24:34.094Z,6.53
2022-12-03T01:29:39.334Z,7.55
2022-12-03T01:34:47.269Z,6.97
2022-12-03T01:39:52.647Z,6.65
2022-12-03T01:45:00.323Z,6.85
2022-12-03T01:50:10.814Z,6.70
2022-12-03T01:55:19.902Z,6.85
2022-12-03T02:00:27.507Z,7.07
2022-12-03T02:05:36.494Z,7.10
2022-12-03T02:10:41.781Z,6.30
2022-12-03T02:15:47.047Z,6.90
2022-12-03T02:21:04.568Z,6.85
2022-12-03T02:26:12.984Z,6.00
2022-12-03T02:31:18.576Z,6.63
2022-12-03T02:36:24.304Z,7.78
2022-12-03T02:41:44.708Z,6.95
2022-12-03T02:46:50.327Z,6.63
2022-12-03T02:51:55.911Z,6.97
2022-12-03T02:57:03.940Z,6.97
2022-12-03T03:02:11.662Z,6.53
2022-12-03T03:07:17.694Z,6.57
2022-12-03T03:12:26.969Z,6.40
2022-12-03T03:17:32.253Z,6.70
2022-12-03T03:22:40.086Z,7.03
2022-12-03T03:27:48.393Z,6.88
2022-12-03T03:32:54.533Z,6.90
2022-12-03T03:38:01.022Z,6.70
2022-12-03T03:43:09.942Z,6.73
2022-12-03T03:48:15.825Z,7.80
2022-12-03T03:53:22.039Z,7.40
2022-12-03T03:58:30.021Z,6.47
2022-12-03T04:03:36.874Z,6.88
2022-12-03T04:08:42.806Z,6.50
2022-12-03T04:13:50.653Z,7.03
2022-12-03T04:18:55.923Z,7.60
2022-12-03T04:24:02.066Z,7.55
2022-12-03T04:29:09.929Z,6.90
2022-12-03T04:34:27.770Z,7.73
2022-12-03T04:39:33.646Z,7.97
2022-12-03T04:44:41.557Z,8.02
2022-12-03T04:49:49.312Z,7.28
2022-12-03T04:54:54.715Z,6.93
2022-12-03T05:00:02.719Z,6.80
2022-12-03T05:05:09.156Z,6.88
2022-12-03T05:10:15.295Z,6.78
2022-12-03T05:15:23.181Z,6.97
2022-12-03T05:20:41.036Z,8.48
2022-12-03T05:25:46.347Z,7.50
2022-12-03T05:30:54.601Z,7.57
2022-12-03T05:35:59.921Z,8.02
2022-12-03T05:41:25.213Z,6.97
2022-12-03T05:46:33.311Z,7.10
2022-12-03T05:51:38.550Z,7.13
2022-12-03T05:56:43.804Z,6.85
2022-12-03T06:01:51.779Z,7.78
2022-12-03T06:06:57.130Z,6.55
2022-12-03T06:12:02.366Z,6.63
2022-12-03T06:17:10.209Z,7.37
2022-12-03T06:22:15.599Z,7.28
2022-12-03T06:27:20.983Z,7.63
2022-12-03T06:32:28.868Z,6.85
2022-12-03T06:37:34.103Z,6.55
2022-12-03T06:42:39.370Z,6.63
2022-12-03T06:47:47.234Z,7.50
2022-12-03T06:52:52.542Z,6.72
2022-12-03T06:57:57.847Z,7.82
2022-12-03T07:03:05.736Z,8.10
2022-12-03T07:08:11.070Z,7.70
2022-12-03T07:13:16.331Z,8.27
2022-12-03T07:18:24.261Z,7.65
2022-12-03T07:23:29.578Z,7.53
2022-12-03T07:28:36.337Z,7.22
2022-12-03T07:33:44.501Z,7.17
2022-12-03T07:38:49.812Z,7.38
2022-12-03T07:43:55.135Z,7.07
2022-12-03T07:49:03.614Z,6.88
2022-12-03T07:54:09.447Z,7.63
2022-12-03T07:59:14.712Z,6.47
2022-12-03T08:04:22.616Z,6.95
2022-12-03T08:09:28.066Z,8.65
2022-12-03T08:14:33.500Z,7.32
2022-12-03T08:19:41.611Z,7.00
2022-12-03T08:24:46.949Z,6.60
2022-12-03T08:29:52.720Z,6.75
2022-12-03T08:35:22.937Z,7.50
2022-12-03T08:40:36.129Z,7.03
2022-12-03T08:45:44.407Z,6.57
2022-12-03T08:50:52.377Z,8.13
2022-12-03T08:55:59.291Z,6.80
2022-12-03T09:01:18.993Z,7.57
2022-12-03T09:06:27.222Z,7.97
2022-12-03T09:11:32.503Z,7.82
2022-12-03T09:16:38.189Z,7.27
2022-12-03T09:21:46.744Z,9.35
2022-12-03T09:26:52.273Z,7.18
2022-12-03T09:31:58.117Z,9.43
2022-12-03T09:37:06.137Z,7.60
2022-12-03T09:42:12.481Z,8.10
2022-12-03T09:47:18.981Z,7.15
2022-12-03T09:52:29.374Z,8.98
2022-12-03T09:57:34.706Z,7.22
2022-12-03T10:02:41.444Z,8.90
2022-12-03T10:07:50.980Z,9.40
2022-12-03T10:12:56.332Z,8.35
2022-12-03T10:18:02.775Z,7.63
2022-12-03T10:23:10.982Z,8.02
2022-12-03T10:28:16.316Z,12.35
2022-12-03T10:33:21.602Z,8.73
2022-12-03T10:38:29.655Z,8.32
2022-12-03T10:43:36.097Z,7.60
2022-12-03T10:48:41.679Z,8.00
2022-12-03T10:53:50.848Z,8.60
2022-12-03T10:58:56.448Z,8.53
2022-12-03T11:04:08.050Z,9.40
2022-12-03T11:09:21.434Z,8.30
2022-12-03T11:15:06.259Z,7.47
2022-12-03T11:20:22.213Z,7.30
2022-12-03T11:25:54.447Z,7.70
2022-12-03T11:31:03.181Z,8.48
2022-12-03T11:36:31.802Z,8.95
2022-12-03T11:42:25.459Z,7.68
2022-12-03T11:47:32.787Z,8.73
2022-12-03T11:52:45.995Z,8.17
2022-12-03T11:58:00.747Z,8.50
2022-12-03T12:03:06.102Z,7.45
2022-12-03T12:08:21.584Z,6.93
2022-12-03T12:13:53.055Z,8.68
2022-12-03T12:18:59.429Z,7.17
2022-12-03T12:24:33.171Z,8.90
2022-12-03T12:29:43.191Z,7.60
2022-12-03T12:34:50.383Z,7.70
2022-12-03T12:39:58.923Z,8.93
2022-12-03T12:45:19.035Z,8.43
2022-12-03T12:50:24.286Z,9.00
2022-12-03T12:55:29.562Z,8.48
2022-12-03T13:00:38.798Z,9.05
2022-12-03T13:05:47.562Z,8.73
2022-12-03T13:10:55.591Z,8.30
2022-12-03T13:16:07.117Z,8.20
2022-12-03T13:21:27.901Z,8.68
2022-12-03T13:26:40.905Z,8.33
2022-12-03T13:31:54.978Z,9.07
2022-12-03T13:37:00.269Z,8.70
2022-12-03T13:42:30.599Z,9.00
2022-12-03T13:47:38.546Z,8.23
2022-12-03T13:52:43.765Z,8.93
2022-12-03T13:57:49.004Z,8.30
2022-12-03T14:02:56.834Z,9.60
2022-12-03T14:08:02.460Z,9.00
2022-12-03T14:13:07.794Z,8.88
2022-12-03T14:18:15.635Z,9.50
2022-12-03T14:23:21.956Z,9.68
2022-12-03T14:28:27.665Z,9.83
2022-12-03T14:33:35.669Z,8.68
2022-12-03T14:38:42.495Z,9.70
2022-12-03T14:43:50.180Z,9.57
2022-12-03T14:48:59.255Z,9.07
2022-12-03T14:54:04.507Z,9.00
2022-12-03T14:59:11.282Z,8.20
2022-12-03T15:04:19.483Z,9.48
2022-12-03T15:09:24.743Z,10.20
2022-12-03T15:14:30.561Z,8.38
2022-12-03T15:19:38.781Z,9.13
2022-12-03T15:24:44.044Z,9.18
2022-12-03T15:29:49.464Z,9.07
2022-12-03T15:34:57.303Z,9.45
2022-12-03T15:40:02.971Z,10.65
2022-12-03T15:45:14.786Z,9.10
2022-12-03T15:50:23.179Z,8.90
2022-12-03T15:55:28.413Z,9.38
2022-12-03T16:00:33.678Z,10.10
2022-12-03T16:05:41.497Z,9.23
2022-12-03T16:10:46.714Z,9.40
2022-12-03T16:15:52.068Z,9.73
2022-12-03T16:21:00.457Z,9.63
2022-12-03T16:26:05.733Z,9.93
2022-12-03T16:31:11.033Z,9.55
2022-12-03T16:36:19.923Z,9.93
2022-12-03T16:41:25.110Z,9.93
2022-12-03T16:46:30.460Z,9.95
2022-12-03T16:51:38.317Z,9.53
2022-12-03T16:56:44.209Z,10.30
2022-12-03T17:01:49.509Z,10.03
2022-12-03T17:06:57.397Z,9.95
2022-12-03T17:12:02.702Z,8.70
2022-12-03T17:17:08.053Z,8.87
2022-12-03T17:22:16.379Z,10.63
2022-12-03T17:27:23.341Z,9.00
2022-12-03T17:32:28.611Z,9.68
2022-12-03T17:37:36.481Z,10.00
2022-12-03T17:42:41.843Z,9.60
2022-12-03T17:47:47.070Z,9.75
2022-12-03T17:52:54.955Z,9.77
2022-12-03T17:58:00.417Z,10.63
2022-12-03T18:03:05.977Z,9.35
2022-12-03T18:08:13.840Z,9.53
2022-12-03T18:13:19.138Z,9.88
2022-12-03T18:18:24.487Z,9.37
2022-12-03T18:23:35.542Z,9.40
2022-12-03T18:28:40.850Z,8.75
2022-12-03T18:33:46.106Z,9.47
2022-12-03T18:38:56.608Z,10.15
2022-12-03T18:44:01.883Z,10.53
2022-12-03T18:49:07.153Z,7.93
2022-12-03T18:54:17.047Z,9.00
2022-12-03T18:59:22.286Z,10.20
2022-12-03T19:04:27.632Z,8.93
2022-12-03T19:09:35.474Z,9.70
2022-12-03T19:14:40.702Z,8.48
2022-12-03T19:19:46.546Z,8.45
2022-12-03T19:24:54.786Z,9.43
2022-12-03T19:30:00.275Z,10.07
2022-12-03T19:35:07.599Z,9.00
2022-12-03T19:40:15.773Z,8.00
2022-12-03T19:45:21.051Z,9.25
2022-12-03T19:50:26.437Z,9.53
2022-12-03T19:55:37.442Z,9.75
2022-12-03T20:00:43.011Z,9.03
2022-12-03T20:05:48.489Z,9.50
2022-12-03T20:10:56.346Z,9.95
2022-12-03T20:16:05.907Z,8.33
2022-12-03T20:21:13.245Z,8.48
2022-12-03T20:26:23.134Z,8.60
2022-12-03T20:31:30.578Z,9.55
2022-12-03T20:36:36.128Z,8.68
2022-12-03T20:41:43.978Z,11.03
2022-12-03T20:46:49.550Z,13.15
2022-12-03T20:51:57.831Z,10.10
2022-12-03T20:57:09.220Z,10.18
2022-12-03T21:02:14.884Z,9.45
2022-12-03T21:07:20.275Z,8.77
2022-12-03T21:12:28.166Z,10.07
2022-12-03T21:17:33.648Z,10.77
2022-12-03T21:22:39.003Z,11.18
2022-12-03T21:27:46.824Z,11.32
2022-12-03T21:32:52.063Z,10.50
2022-12-03T21:37:57.927Z,10.48
2022-12-03T21:43:05.898Z,9.33
2022-12-03T21:48:11.527Z,11.00
2022-12-03T21:53:17.071Z,10.68
2022-12-03T21:58:25.277Z,10.57
2022-12-03T22:03:30.850Z,9.98
2022-12-03T22:08:36.174Z,9.43
2022-12-03T22:13:44.740Z,9.77
2022-12-03T22:18:50.456Z,9.48
2022-12-03T22:23:55.677Z,9.20
2022-12-03T22:29:03.561Z,9.32
2022-12-03T22:34:08.934Z,11.27
2022-12-03T22:39:14.242Z,9.45
2022-12-03T22:44:22.120Z,9.60
2022-12-03T22:49:30.034Z,8.80
2022-12-03T22:54:35.530Z,10.73
2022-12-03T22:59:43.579Z,9.50
2022-12-03T23:04:48.856Z,9.63
2022-12-03T23:09:54.781Z,9.27
2022-12-03T23:15:02.880Z,10.20
2022-12-03T23:20:09.994Z,9.90
2022-12-03T23:25:15.461Z,10.33
2022-12-03T23:30:23.570Z,10.18
2022-12-03T23:35:28.889Z,10.30
2022-12-03T23:40:34.171Z,9.43
2022-12-03T23:45:41.983Z,9.55
2022-12-03T23:50:47.232Z,10.43
2022-12-03T23:55:52.723Z,11.43
